KCMY/CMY METAR and TAF weather

Enter ICAO airport designator
Station Type Date Time Source
KCMY METAR 2019/02/23 17:55 UTC NOAA

KCMY 231755Z AUTO 08005KT 4SM BR OVC009 00/M01 A2987 RMK AO2 P0003 60004 T00001008 10000 21017


Station Type Date Time Source
KCMY Decoded METAR 2019/02/23 17:55 UTC NOAA

Sparta, Sparta / Fort McCoy Airport, WI, United States (KCMY) 43-57-30N 090-44-16W
Feb 23, 2019 - 12:55 PM EST / 2019.02.23 1755 UTC
Wind: from the E (080 degrees) at 6 MPH (5 KT):0
Visibility: 4 mile(s):0
Sky conditions: overcast
Weather: mist
Precipitation last hour: 0.03 inches
Temperature: 32.0 F (0.0 C)
Windchill: 26 F (-3 C):1
Dew Point: 30.6 F (-0.8 C)
Relative Humidity: 94%
Pressure (altimeter): 29.87 in. Hg (1011 hPa)
ob: KCMY 231755Z AUTO 08005KT 4SM BR OVC009 00/M01 A2987 RMK AO2 P0003 60004 T00001008 10000 21017
cycle: 18

Station Type Date Time Source
KCMY TAF UTC NOAA

Error!


Example: see airport list